Weather Tapiola - Query any day since 2019-01-03

Current weather

Date:     <-    scroll days    ->
day curves
Low temperature°C -5.020:00
High temperature°C -0.614:30
Low wind chill°C -9.208:00
Average temperature°C -2.7 
High wind speed (10 min) m/s 5.300:30
High gusts (10 min) m/s 8.200:30
Low R.H% 7513:30
High R.H% 9820:00
Highest snow depthcm 11 
Day weather data as a table
Date Time Temp
°C
Chill
°C
Wind
m/s
Gusts
m/s
Hum
%
Precip
mm
Snow depth
2023-01-27 20:00:00 -5.0  -7.5  1.5 2.1 98 - 11
2023-01-27 19:30:00 -5.0  -8.3  2.0 2.4 97 - 11
2023-01-27 19:00:00 -4.4  -6.8  1.5 2.1 97 - 11
2023-01-27 18:30:00 -4.2  -7.2  1.9 2.5 96 - 11
2023-01-27 18:00:00 -4.0  -6.7  1.7 2.4 94 - 11
2023-01-27 17:30:00 -3.3  -6.7  2.3 2.9 91 - 11
2023-01-27 17:00:00 -3.1  -5.9  1.9 2.8 90 - 11
2023-01-27 16:30:00 -2.6  -5.6  2.1 2.5 87 - 11
2023-01-27 16:00:00 -1.7  -3.9  1.6 2.2 82 - 11
2023-01-27 15:30:00 -1.2  -2.8  1.3 2.3 79 - 11
2023-01-27 15:00:00 -0.7  -2.9  1.7 2.8 75 - 11
2023-01-27 14:30:00 -0.6  -3.2  2.0 3.3 75 - 11
2023-01-27 14:00:00 -1.1  -4.2  2.4 3.6 78 - 11
2023-01-27 13:30:00 -1.1  -2.3  1.1 2.0 75 - 11
2023-01-27 13:00:00 -1.5  -4.5  2.2 3.2 77 - 11
2023-01-27 12:30:00 -2.0  -4.8  2.0 2.7 81 - 11
2023-01-27 12:00:00 -2.5  -6.6  3.1 4.3 83 - 11
2023-01-27 11:30:00 -3.0  -6.0  2.0 3.0 84 - 11
2023-01-27 11:00:00 -3.3  -7.2  2.7 3.8 86 - 11
2023-01-27 10:30:00 -3.9  -7.3  2.2 3.7 90 - 11
2023-01-27 10:00:00 -4.3  -8.0  2.4 3.8 91 - 11
2023-01-27 09:30:00 -4.5  -8.9  3.0 4.7 92 - 11
2023-01-27 09:00:00 -4.5  -9.1  3.2 4.3 92 - 11
2023-01-27 08:30:00 -4.4  -9.0  3.2 4.6 93 - 11
2023-01-27 08:00:00 -4.2  -9.2  3.7 5.2 91 - 11
2023-01-27 07:30:00 -3.9  -8.7  3.5 4.8 91 - 11
2023-01-27 07:00:00 -3.6  -8.3  3.5 5.8 91 - 11
2023-01-27 06:30:00 -3.5  -8.5  3.9 5.5 91 - 11
2023-01-27 06:00:00 -3.4  -8.2  3.7 5.0 91 - 11
2023-01-27 05:30:00 -3.1  -7.8  3.6 5.5 90 - 11
2023-01-27 05:00:00 -2.8  -7.7  3.9 6.3 89 - 11
2023-01-27 04:30:00 -2.7  -7.3  3.6 5.1 90 - 11
2023-01-27 04:00:00 -2.6  -6.7  3.1 4.8 91 - 11
2023-01-27 03:30:00 -2.3  -6.2  2.9 4.0 90 - 11
2023-01-27 03:00:00 -2.2  -6.0  2.8 4.5 90 - 11
2023-01-27 02:30:00 -1.8  -5.9  3.2 4.3 90 - 11
2023-01-27 02:00:00 -1.4  -5.3  3.1 4.6 88 - 11
2023-01-27 01:30:00 -0.9  -6.2  5.2 7.2 86 - 11
2023-01-27 01:00:00 -0.8  -5.4  4.2 7.1 86 - 11
2023-01-27 00:30:00 -0.6  -5.9  5.3 8.2 87 - 11
2023-01-27 00:00:00 -0.8  -5.4  4.1 5.7 89 - 11